createdAt,value
2017-08-31T00:00:36.550Z,20.62
2017-08-31T00:03:04.413Z,20.57
2017-08-31T00:05:32.300Z,20.53
2017-08-31T00:08:00.153Z,20.43
2017-08-31T00:10:28.029Z,20.36
2017-08-31T00:12:55.888Z,20.32
2017-08-31T00:15:23.765Z,20.35
2017-08-31T00:17:51.668Z,20.39
2017-08-31T00:20:19.606Z,20.39
2017-08-31T00:22:47.502Z,20.38
2017-08-31T00:25:15.346Z,20.36
2017-08-31T00:27:43.291Z,20.32
2017-08-31T00:30:11.136Z,20.30
2017-08-31T00:32:39.045Z,20.26
2017-08-31T00:35:06.906Z,20.24
2017-08-31T00:37:34.737Z,20.25
2017-08-31T00:40:02.494Z,20.29
2017-08-31T00:42:30.385Z,20.36
2017-08-31T00:44:58.275Z,20.43
2017-08-31T00:47:26.248Z,20.49
2017-08-31T00:49:54.124Z,20.57
2017-08-31T00:52:22.018Z,20.61
2017-08-31T00:54:50.033Z,20.66
2017-08-31T00:57:18.898Z,20.66
2017-08-31T00:59:46.811Z,20.66
2017-08-31T01:02:14.670Z,20.64
2017-08-31T01:04:42.565Z,20.67
2017-08-31T01:07:10.433Z,20.65
2017-08-31T01:09:38.303Z,20.64
2017-08-31T01:12:06.146Z,20.63
2017-08-31T01:14:34.055Z,20.63
2017-08-31T01:17:01.898Z,20.61
2017-08-31T01:19:29.781Z,20.59
2017-08-31T01:21:57.727Z,20.57
2017-08-31T01:24:25.634Z,20.60
2017-08-31T01:26:53.561Z,20.62
2017-08-31T01:29:21.458Z,20.65
2017-08-31T01:31:49.415Z,20.69
2017-08-31T01:34:17.306Z,20.73
2017-08-31T01:36:45.252Z,20.76
2017-08-31T01:39:13.144Z,20.80
2017-08-31T01:41:41.061Z,20.84
2017-08-31T01:44:08.932Z,20.89
2017-08-31T01:46:36.859Z,20.89
2017-08-31T01:49:04.740Z,20.88
2017-08-31T01:51:32.708Z,20.83
2017-08-31T01:54:00.515Z,20.79
2017-08-31T01:56:28.467Z,20.77
2017-08-31T01:58:56.388Z,20.77
2017-08-31T02:01:24.273Z,20.77
2017-08-31T02:03:52.189Z,20.74
2017-08-31T02:06:20.053Z,20.72
2017-08-31T02:08:47.925Z,20.72
2017-08-31T02:11:15.772Z,20.72
2017-08-31T02:13:43.657Z,20.70
2017-08-31T02:16:11.558Z,20.70
2017-08-31T02:18:39.437Z,20.66
2017-08-31T02:21:07.301Z,20.64
2017-08-31T02:23:35.232Z,20.61
2017-08-31T02:26:03.170Z,20.60
2017-08-31T02:28:31.057Z,20.58
2017-08-31T02:30:58.951Z,20.58
2017-08-31T02:33:26.812Z,20.57
2017-08-31T02:35:54.725Z,20.57
2017-08-31T02:38:22.609Z,20.57
2017-08-31T02:40:50.525Z,20.55
2017-08-31T02:43:18.364Z,20.52
2017-08-31T02:45:46.245Z,20.51
2017-08-31T02:48:14.137Z,20.50
2017-08-31T02:50:42.016Z,20.47
2017-08-31T02:53:09.870Z,20.42
2017-08-31T02:55:37.700Z,20.38
2017-08-31T02:58:05.612Z,20.39
2017-08-31T03:00:33.496Z,20.40
2017-08-31T03:03:01.381Z,20.39
2017-08-31T03:05:29.257Z,20.35
2017-08-31T03:07:57.166Z,20.30
2017-08-31T03:10:25.022Z,20.29
2017-08-31T03:12:52.922Z,20.33
2017-08-31T03:15:20.776Z,20.33
2017-08-31T03:17:48.684Z,20.32
2017-08-31T03:20:16.524Z,20.29
2017-08-31T03:22:44.452Z,20.24
2017-08-31T03:25:12.315Z,20.24
2017-08-31T03:27:40.162Z,20.30
2017-08-31T03:30:08.065Z,20.39
2017-08-31T03:32:35.904Z,20.45
2017-08-31T03:35:03.788Z,20.49
2017-08-31T03:37:31.637Z,20.53
2017-08-31T03:39:59.439Z,20.59
2017-08-31T03:42:27.289Z,20.62
2017-08-31T03:44:55.212Z,20.65
2017-08-31T03:47:23.063Z,20.64
2017-08-31T03:49:50.941Z,20.65
2017-08-31T03:52:18.809Z,20.64
2017-08-31T03:54:46.640Z,20.63
2017-08-31T03:57:14.554Z,20.65
2017-08-31T03:59:42.461Z,20.68
2017-08-31T04:02:10.368Z,20.66
2017-08-31T04:04:38.220Z,20.62
2017-08-31T04:07:06.130Z,20.58
2017-08-31T04:09:33.997Z,20.57
2017-08-31T04:12:01.880Z,20.55
2017-08-31T04:14:29.764Z,20.50
2017-08-31T04:16:57.672Z,20.46
2017-08-31T04:19:25.420Z,20.45
2017-08-31T04:21:53.306Z,20.41
2017-08-31T04:24:21.194Z,20.35
2017-08-31T04:26:48.942Z,20.28
2017-08-31T04:29:16.757Z,20.26
2017-08-31T04:31:44.603Z,20.25
2017-08-31T04:34:12.504Z,20.24
2017-08-31T04:36:40.360Z,20.22
2017-08-31T04:39:08.260Z,20.23
2017-08-31T04:41:36.113Z,20.23
2017-08-31T04:44:04.002Z,20.22
2017-08-31T04:46:31.770Z,20.21
2017-08-31T04:48:59.556Z,20.21
2017-08-31T04:51:27.289Z,20.24
2017-08-31T04:53:55.029Z,20.29
2017-08-31T04:56:22.825Z,20.34
2017-08-31T04:58:50.572Z,20.38
2017-08-31T05:01:18.422Z,20.43
2017-08-31T05:03:46.247Z,20.46
2017-08-31T05:06:14.120Z,20.53
2017-08-31T05:08:43.116Z,20.56
2017-08-31T05:11:11.000Z,20.58
2017-08-31T05:13:38.802Z,20.59
2017-08-31T05:16:06.672Z,20.60
2017-08-31T05:18:34.472Z,20.61
2017-08-31T05:21:02.268Z,20.63
2017-08-31T05:23:30.127Z,20.64
2017-08-31T05:25:57.907Z,20.66
2017-08-31T05:28:25.739Z,20.69
2017-08-31T05:30:53.525Z,20.79
2017-08-31T05:33:21.364Z,20.86
2017-08-31T05:35:49.162Z,21.03
2017-08-31T05:38:17.005Z,21.14
2017-08-31T05:40:44.808Z,21.31
2017-08-31T05:43:12.663Z,21.45
2017-08-31T05:45:40.447Z,21.55
2017-08-31T05:48:08.297Z,21.62
2017-08-31T05:50:36.076Z,21.60
2017-08-31T05:53:03.869Z,21.58
2017-08-31T05:55:31.700Z,21.58
2017-08-31T05:57:59.492Z,21.62
2017-08-31T06:00:27.338Z,21.64
2017-08-31T06:02:55.141Z,21.63
2017-08-31T06:05:22.966Z,21.63
2017-08-31T06:07:50.741Z,21.68
2017-08-31T06:10:18.565Z,21.64
2017-08-31T06:12:46.389Z,21.55
2017-08-31T06:15:14.289Z,21.52
2017-08-31T06:17:42.024Z,21.54
2017-08-31T06:20:09.809Z,21.63
2017-08-31T06:22:37.574Z,21.73
2017-08-31T06:25:05.389Z,21.81
2017-08-31T06:27:33.164Z,21.75
2017-08-31T06:30:00.888Z,21.57
2017-08-31T06:32:28.710Z,21.47
2017-08-31T06:34:56.466Z,21.47
2017-08-31T06:37:24.257Z,21.50
2017-08-31T06:39:52.059Z,21.59
2017-08-31T06:42:19.892Z,21.62
2017-08-31T06:44:47.734Z,21.62
2017-08-31T06:47:15.544Z,21.58
2017-08-31T06:49:43.371Z,21.56
2017-08-31T06:52:11.136Z,21.48
2017-08-31T06:54:38.929Z,21.42
2017-08-31T06:57:06.676Z,21.41
2017-08-31T06:59:34.481Z,21.45
2017-08-31T07:02:02.219Z,21.47
2017-08-31T07:04:30.045Z,21.46
2017-08-31T07:06:57.780Z,21.38
2017-08-31T07:09:25.632Z,21.47
2017-08-31T07:11:53.541Z,21.61
2017-08-31T07:14:21.428Z,21.62
2017-08-31T07:16:49.366Z,21.71
2017-08-31T07:19:17.234Z,21.77
2017-08-31T07:21:45.183Z,21.83
2017-08-31T07:24:13.089Z,21.83
2017-08-31T07:26:41.476Z,21.83
2017-08-31T07:29:09.395Z,21.85
2017-08-31T07:31:37.192Z,21.93
2017-08-31T07:34:05.039Z,22.04
2017-08-31T07:36:32.857Z,22.04
2017-08-31T07:39:00.780Z,21.98
2017-08-31T07:41:28.626Z,21.92
2017-08-31T07:43:56.405Z,21.96
2017-08-31T07:46:24.288Z,22.04
2017-08-31T07:48:52.242Z,22.12
2017-08-31T07:51:20.007Z,22.23
2017-08-31T07:53:47.843Z,22.17
2017-08-31T07:56:15.610Z,22.06
2017-08-31T07:58:43.471Z,21.90
2017-08-31T08:01:11.290Z,21.54
2017-08-31T08:03:39.135Z,21.34
2017-08-31T08:06:06.897Z,21.11
2017-08-31T08:08:34.820Z,20.95
2017-08-31T08:11:02.631Z,20.71
2017-08-31T08:13:30.488Z,20.55
2017-08-31T08:15:58.230Z,20.45
2017-08-31T08:18:26.078Z,20.43
2017-08-31T08:20:54.008Z,20.50
2017-08-31T08:23:21.777Z,20.69
2017-08-31T08:25:49.597Z,20.82
2017-08-31T08:28:17.380Z,20.96
2017-08-31T08:30:45.206Z,21.16
2017-08-31T08:33:12.983Z,21.25
2017-08-31T08:35:40.790Z,21.35
2017-08-31T08:38:09.359Z,21.47
2017-08-31T08:40:37.854Z,21.64
2017-08-31T08:43:05.793Z,21.70
2017-08-31T08:45:33.610Z,21.76
2017-08-31T08:48:01.381Z,21.57
2017-08-31T08:50:29.317Z,21.44
2017-08-31T08:52:57.036Z,21.32
2017-08-31T08:55:24.963Z,21.23
2017-08-31T08:57:52.788Z,21.05
2017-08-31T09:00:20.666Z,21.02
2017-08-31T09:02:48.585Z,21.06
2017-08-31T09:05:16.514Z,21.05
2017-08-31T09:07:44.428Z,21.13
2017-08-31T09:10:12.278Z,21.28
2017-08-31T09:12:40.093Z,21.08
2017-08-31T09:15:07.936Z,20.78
2017-08-31T09:17:35.963Z,20.61
2017-08-31T09:20:03.724Z,20.54
2017-08-31T09:22:31.670Z,20.45
2017-08-31T09:24:59.566Z,20.34
2017-08-31T09:27:27.467Z,20.25
2017-08-31T09:29:55.335Z,20.16
2017-08-31T09:32:23.172Z,20.17
2017-08-31T09:34:51.075Z,20.31
2017-08-31T09:37:18.932Z,20.61
2017-08-31T09:39:46.838Z,20.98
2017-08-31T09:42:14.564Z,21.24
2017-08-31T09:44:42.349Z,21.51
2017-08-31T09:47:10.158Z,21.65
2017-08-31T09:49:37.968Z,21.51
2017-08-31T09:52:05.683Z,21.46
2017-08-31T09:54:33.495Z,21.49
2017-08-31T09:57:01.241Z,21.36
2017-08-31T09:59:28.991Z,21.21
2017-08-31T10:01:56.779Z,20.91
2017-08-31T10:04:24.518Z,20.69
2017-08-31T10:06:52.357Z,20.63
2017-08-31T10:09:20.099Z,20.59
2017-08-31T10:11:47.874Z,20.45
2017-08-31T10:14:15.632Z,20.38
2017-08-31T10:16:43.479Z,20.29
2017-08-31T10:19:11.208Z,20.19
2017-08-31T10:21:38.996Z,20.18
2017-08-31T10:24:06.728Z,20.10
2017-08-31T10:26:34.563Z,19.88
2017-08-31T10:29:02.366Z,19.75
2017-08-31T10:31:30.197Z,19.59
2017-08-31T10:33:58.044Z,19.47
2017-08-31T10:36:25.860Z,19.47
2017-08-31T10:38:53.686Z,19.64
2017-08-31T10:41:21.467Z,19.77
2017-08-31T10:43:49.283Z,20.00
2017-08-31T10:46:17.066Z,20.24
2017-08-31T10:48:44.918Z,20.33
2017-08-31T10:51:12.829Z,20.44
2017-08-31T10:53:40.782Z,20.46
2017-08-31T10:56:09.644Z,20.48
2017-08-31T10:58:37.561Z,20.52
2017-08-31T11:01:05.442Z,20.52
2017-08-31T11:03:33.362Z,20.71
2017-08-31T11:06:01.229Z,20.80
2017-08-31T11:08:29.049Z,20.86
2017-08-31T11:10:56.897Z,20.60
2017-08-31T11:13:24.697Z,20.41
2017-08-31T11:15:52.579Z,20.05
2017-08-31T11:18:20.351Z,20.00
2017-08-31T11:20:48.236Z,19.97
2017-08-31T11:23:16.116Z,19.94
2017-08-31T11:25:43.985Z,19.95
2017-08-31T11:28:11.964Z,19.95
2017-08-31T11:30:39.819Z,20.01
2017-08-31T11:33:07.842Z,20.02
2017-08-31T11:35:35.684Z,20.17
2017-08-31T11:38:03.603Z,20.34
2017-08-31T11:40:31.463Z,20.26
2017-08-31T11:42:59.391Z,20.26
2017-08-31T11:45:27.265Z,20.36
2017-08-31T11:47:55.174Z,20.44
2017-08-31T11:50:23.032Z,20.46
2017-08-31T11:52:50.971Z,20.45
2017-08-31T11:55:18.804Z,20.41
2017-08-31T11:57:46.555Z,20.43
2017-08-31T12:00:14.472Z,20.28
2017-08-31T12:02:42.186Z,20.20
2017-08-31T12:05:10.118Z,20.16
2017-08-31T12:07:37.864Z,20.25
2017-08-31T12:10:05.786Z,20.37
2017-08-31T12:12:33.661Z,20.48
2017-08-31T12:15:01.568Z,20.60
2017-08-31T12:17:29.438Z,20.45
2017-08-31T12:19:57.337Z,20.51
2017-08-31T12:22:25.253Z,20.60
2017-08-31T12:24:53.164Z,20.56
2017-08-31T12:27:21.037Z,20.37
2017-08-31T12:29:48.892Z,20.49
2017-08-31T12:32:16.816Z,20.66
2017-08-31T12:34:44.674Z,20.72
2017-08-31T12:37:12.598Z,20.77
2017-08-31T12:39:40.378Z,20.82
2017-08-31T12:42:08.298Z,20.39
2017-08-31T12:44:36.150Z,20.02
2017-08-31T12:47:04.051Z,19.94
2017-08-31T12:49:31.923Z,20.12
2017-08-31T12:51:59.805Z,20.17
2017-08-31T12:54:27.673Z,20.63
2017-08-31T12:56:55.727Z,20.66
2017-08-31T12:59:23.633Z,20.13
2017-08-31T13:01:51.492Z,19.90
2017-08-31T13:04:19.406Z,19.96
2017-08-31T13:06:47.228Z,19.96
2017-08-31T13:09:15.131Z,19.83
2017-08-31T13:11:43.005Z,19.85
2017-08-31T13:14:10.901Z,19.93
2017-08-31T13:16:38.768Z,20.11
2017-08-31T13:19:06.655Z,20.53
2017-08-31T13:21:34.532Z,20.70
2017-08-31T13:24:02.439Z,20.73
2017-08-31T13:26:30.337Z,21.22
2017-08-31T13:28:58.225Z,21.34
2017-08-31T13:31:25.979Z,20.89
2017-08-31T13:33:53.764Z,21.16
2017-08-31T13:36:21.588Z,20.96
2017-08-31T13:38:49.460Z,21.05
2017-08-31T13:41:17.274Z,20.83
2017-08-31T13:43:45.117Z,20.51
2017-08-31T13:46:13.037Z,20.48
2017-08-31T13:48:40.871Z,20.59
2017-08-31T13:51:08.756Z,20.47
2017-08-31T13:53:36.633Z,19.99
2017-08-31T13:56:04.561Z,19.58
2017-08-31T13:58:32.397Z,19.39
2017-08-31T14:01:00.232Z,19.28
2017-08-31T14:03:28.121Z,19.18
2017-08-31T14:05:56.014Z,18.97
2017-08-31T14:08:23.918Z,18.83
2017-08-31T14:10:51.707Z,18.80
2017-08-31T14:13:19.637Z,18.81
2017-08-31T14:15:47.560Z,18.99
2017-08-31T14:18:15.468Z,19.12
2017-08-31T14:20:43.356Z,19.04
2017-08-31T14:23:11.266Z,19.20
2017-08-31T14:25:39.116Z,19.60
2017-08-31T14:28:06.881Z,19.81
2017-08-31T14:30:34.691Z,19.91
2017-08-31T14:33:02.443Z,19.99
2017-08-31T14:35:30.263Z,20.05
2017-08-31T14:37:58.049Z,20.10
2017-08-31T14:40:25.860Z,20.15
2017-08-31T14:42:53.736Z,19.96
2017-08-31T14:45:21.645Z,19.85
2017-08-31T14:47:49.495Z,19.94
2017-08-31T14:50:17.437Z,20.08
2017-08-31T14:52:45.279Z,19.86
2017-08-31T14:55:13.139Z,19.79
2017-08-31T14:57:41.052Z,19.73
2017-08-31T15:00:08.911Z,19.64
2017-08-31T15:02:36.852Z,19.46
2017-08-31T15:05:04.739Z,19.31
2017-08-31T15:07:32.677Z,19.33
2017-08-31T15:10:00.447Z,19.34
2017-08-31T15:12:28.237Z,19.28
2017-08-31T15:14:56.080Z,19.34
2017-08-31T15:17:23.982Z,19.25
2017-08-31T15:19:51.843Z,19.18
2017-08-31T15:22:19.797Z,19.12
2017-08-31T15:24:47.707Z,19.10
2017-08-31T15:27:15.657Z,19.03
2017-08-31T15:29:43.515Z,18.99
2017-08-31T15:32:11.357Z,18.98
2017-08-31T15:34:39.278Z,18.85
2017-08-31T15:37:07.124Z,18.71
2017-08-31T15:39:34.988Z,18.54
2017-08-31T15:42:03.786Z,18.48
2017-08-31T15:44:31.689Z,18.61
2017-08-31T15:46:59.601Z,18.82
2017-08-31T15:49:27.490Z,19.00
2017-08-31T15:51:55.341Z,19.09
2017-08-31T15:54:23.273Z,19.04
2017-08-31T15:56:51.140Z,18.88
2017-08-31T15:59:19.058Z,18.85
2017-08-31T16:01:46.776Z,18.97
2017-08-31T16:04:14.506Z,19.05
2017-08-31T16:06:42.283Z,19.04
2017-08-31T16:09:10.033Z,19.02
2017-08-31T16:11:37.801Z,18.99
2017-08-31T16:14:05.516Z,18.89
2017-08-31T16:16:33.297Z,18.81
2017-08-31T16:19:01.044Z,18.74
2017-08-31T16:21:28.822Z,18.65
2017-08-31T16:23:56.560Z,18.59
2017-08-31T16:26:24.347Z,18.49
2017-08-31T16:28:52.060Z,18.41
2017-08-31T16:31:19.833Z,18.35
2017-08-31T16:33:47.585Z,18.35
2017-08-31T16:36:15.341Z,18.33
2017-08-31T16:38:43.079Z,18.25
2017-08-31T16:41:10.842Z,18.18
2017-08-31T16:43:38.614Z,18.14
2017-08-31T16:46:06.355Z,18.13
2017-08-31T16:48:34.161Z,18.10
2017-08-31T16:51:01.900Z,18.10
2017-08-31T16:53:29.676Z,18.08
2017-08-31T16:55:57.431Z,18.05
2017-08-31T16:58:25.244Z,17.99
2017-08-31T17:00:52.970Z,17.96
2017-08-31T17:03:20.747Z,17.98
2017-08-31T17:05:48.470Z,17.97
2017-08-31T17:08:16.249Z,17.96
2017-08-31T17:10:43.980Z,17.98
2017-08-31T17:13:12.293Z,18.02
2017-08-31T17:15:40.109Z,18.09
2017-08-31T17:18:07.853Z,18.17
2017-08-31T17:20:35.742Z,18.21
2017-08-31T17:23:03.552Z,18.09
2017-08-31T17:25:31.325Z,17.88
2017-08-31T17:27:59.167Z,17.73
2017-08-31T17:30:26.999Z,17.57
2017-08-31T17:32:54.713Z,17.46
2017-08-31T17:35:22.481Z,17.38
2017-08-31T17:37:50.206Z,17.30
2017-08-31T17:40:17.940Z,17.26
2017-08-31T17:42:45.730Z,17.17
2017-08-31T17:45:13.462Z,17.15
2017-08-31T17:47:41.302Z,17.15
2017-08-31T17:50:09.049Z,17.14
2017-08-31T17:52:36.814Z,17.17
2017-08-31T17:55:04.563Z,17.19
2017-08-31T17:57:32.386Z,17.13
2017-08-31T18:00:00.123Z,17.05
2017-08-31T18:02:27.938Z,17.03
2017-08-31T18:04:55.728Z,16.99
2017-08-31T18:07:23.478Z,16.93
2017-08-31T18:09:51.251Z,16.92
2017-08-31T18:12:18.973Z,16.94
2017-08-31T18:14:46.783Z,16.96
2017-08-31T18:17:14.526Z,16.93
2017-08-31T18:19:42.299Z,16.89
2017-08-31T18:22:10.058Z,16.83
2017-08-31T18:24:37.834Z,16.75
2017-08-31T18:27:05.569Z,16.71
2017-08-31T18:29:33.405Z,16.63
2017-08-31T18:32:01.125Z,16.50
2017-08-31T18:34:28.856Z,16.37
2017-08-31T18:36:56.621Z,16.24
2017-08-31T18:39:24.349Z,16.16
2017-08-31T18:41:52.102Z,16.07
2017-08-31T18:44:19.825Z,15.99
2017-08-31T18:46:47.589Z,15.95
2017-08-31T18:49:15.346Z,15.93
2017-08-31T18:51:43.117Z,15.86
2017-08-31T18:54:10.882Z,15.82
2017-08-31T18:56:38.668Z,15.75
2017-08-31T18:59:06.400Z,15.67
2017-08-31T19:01:34.208Z,15.66
2017-08-31T19:04:01.973Z,15.62
2017-08-31T19:06:29.742Z,15.55
2017-08-31T19:08:57.541Z,15.45
2017-08-31T19:11:25.276Z,15.40
2017-08-31T19:13:53.056Z,15.40
2017-08-31T19:16:20.839Z,15.35
2017-08-31T19:18:48.621Z,15.28
2017-08-31T19:21:16.381Z,15.21
2017-08-31T19:23:44.150Z,15.11
2017-08-31T19:26:11.888Z,15.01
2017-08-31T19:28:39.674Z,14.92
2017-08-31T19:31:07.422Z,14.88
2017-08-31T19:33:35.181Z,14.86
2017-08-31T19:36:02.960Z,14.87
2017-08-31T19:38:30.741Z,14.86
2017-08-31T19:40:58.527Z,14.82
2017-08-31T19:43:26.267Z,14.79
2017-08-31T19:45:54.194Z,14.71
2017-08-31T19:48:22.037Z,14.64
2017-08-31T19:50:49.981Z,14.60
2017-08-31T19:53:17.871Z,14.57
2017-08-31T19:55:45.778Z,14.52
2017-08-31T19:58:13.635Z,14.46
2017-08-31T20:00:41.528Z,14.40
2017-08-31T20:03:09.384Z,14.30
2017-08-31T20:05:37.265Z,14.25
2017-08-31T20:08:05.133Z,14.21
2017-08-31T20:10:32.977Z,14.18
2017-08-31T20:13:00.891Z,14.14
2017-08-31T20:15:28.748Z,14.13
2017-08-31T20:17:56.644Z,14.13
2017-08-31T20:20:24.497Z,14.10
2017-08-31T20:22:52.428Z,14.10
2017-08-31T20:25:20.341Z,14.08
2017-08-31T20:27:48.248Z,14.05
2017-08-31T20:30:16.089Z,14.03
2017-08-31T20:32:43.975Z,14.03
2017-08-31T20:35:11.839Z,14.00
2017-08-31T20:37:39.632Z,13.95
2017-08-31T20:40:07.478Z,13.92
2017-08-31T20:42:35.217Z,13.92
2017-08-31T20:45:03.037Z,13.89
2017-08-31T20:47:30.840Z,13.89
2017-08-31T20:49:58.622Z,13.87
2017-08-31T20:52:26.377Z,13.88
2017-08-31T20:54:54.182Z,13.88
2017-08-31T20:57:21.932Z,13.82
2017-08-31T20:59:49.717Z,13.70
2017-08-31T21:02:17.573Z,13.61
2017-08-31T21:04:45.463Z,13.51
2017-08-31T21:07:13.309Z,13.50
2017-08-31T21:09:41.189Z,13.54
2017-08-31T21:12:08.990Z,13.55
2017-08-31T21:14:36.823Z,13.56
2017-08-31T21:17:04.697Z,13.59
2017-08-31T21:19:32.557Z,13.56
2017-08-31T21:22:00.510Z,13.48
2017-08-31T21:24:28.349Z,13.40
2017-08-31T21:26:56.263Z,13.33
2017-08-31T21:29:24.098Z,13.22
2017-08-31T21:31:51.951Z,13.14
2017-08-31T21:34:19.809Z,13.03
2017-08-31T21:36:47.678Z,12.97
2017-08-31T21:39:15.500Z,12.95
2017-08-31T21:41:43.425Z,12.93
2017-08-31T21:44:11.271Z,12.93
2017-08-31T21:46:39.135Z,12.91
2017-08-31T21:49:06.926Z,12.86
2017-08-31T21:51:34.785Z,12.82
2017-08-31T21:54:02.582Z,12.75
2017-08-31T21:56:30.417Z,12.73
2017-08-31T21:58:58.332Z,12.73
2017-08-31T22:01:26.185Z,12.70
2017-08-31T22:03:54.072Z,12.67
2017-08-31T22:06:21.928Z,12.66
2017-08-31T22:08:49.668Z,12.66
2017-08-31T22:11:17.548Z,12.63
2017-08-31T22:13:45.369Z,12.58
2017-08-31T22:16:13.249Z,12.53
2017-08-31T22:18:41.079Z,12.48
2017-08-31T22:21:08.878Z,12.41
2017-08-31T22:23:36.748Z,12.37
2017-08-31T22:26:04.683Z,12.34
2017-08-31T22:28:32.511Z,12.33
2017-08-31T22:31:00.235Z,12.31
2017-08-31T22:33:28.116Z,12.28
2017-08-31T22:35:55.960Z,12.24
2017-08-31T22:38:23.817Z,12.24
2017-08-31T22:40:51.631Z,12.24
2017-08-31T22:43:19.515Z,12.20
2017-08-31T22:45:47.228Z,12.15
2017-08-31T22:48:15.072Z,12.09
2017-08-31T22:50:42.866Z,12.04
2017-08-31T22:53:10.701Z,11.99
2017-08-31T22:55:38.488Z,11.94
2017-08-31T22:58:21.927Z,11.89
2017-08-31T23:00:49.657Z,11.87
2017-08-31T23:03:17.514Z,11.85
2017-08-31T23:05:45.322Z,11.82
2017-08-31T23:08:13.160Z,11.74
2017-08-31T23:10:40.971Z,11.69
2017-08-31T23:13:08.759Z,11.66
2017-08-31T23:15:36.591Z,11.65
2017-08-31T23:18:04.435Z,11.62
2017-08-31T23:20:32.290Z,11.59
2017-08-31T23:23:00.013Z,11.58
2017-08-31T23:25:27.864Z,11.60
2017-08-31T23:27:55.671Z,11.57
2017-08-31T23:30:23.494Z,11.54
2017-08-31T23:32:51.301Z,11.58
2017-08-31T23:35:19.126Z,11.56
2017-08-31T23:37:46.936Z,11.54
2017-08-31T23:40:14.793Z,11.51
2017-08-31T23:42:42.509Z,11.48
2017-08-31T23:45:10.389Z,11.46
2017-08-31T23:47:38.200Z,11.42
2017-08-31T23:50:05.982Z,11.35
2017-08-31T23:52:33.834Z,11.26
2017-08-31T23:55:01.556Z,11.21
2017-08-31T23:57:29.386Z,11.16
2017-08-31T23:59:57.203Z,11.12
